sensor_id;sensor_type;location;lat;lon;timestamp;pressure;altitude;pressure_sealevel;temperature;humidity
61908;BME280;47864;52.526;19.672;2023-04-26T00:00:08;100210.56;;;7.24;100.00
61908;BME280;47864;52.526;19.672;2023-04-26T00:02:10;100206.41;;;7.12;100.00
61908;BME280;47864;52.526;19.672;2023-04-26T00:04:12;100217.66;;;7.14;100.00
61908;BME280;47864;52.526;19.672;2023-04-26T00:06:14;100212.78;;;7.19;100.00
61908;BME280;47864;52.526;19.672;2023-04-26T00:08:15;100218.03;;;7.09;100.00
61908;BME280;47864;52.526;19.672;2023-04-26T00:10:17;100217.06;;;7.01;100.00
61908;BME280;47864;52.526;19.672;2023-04-26T00:12:19;100220.94;;;6.87;100.00
61908;BME280;47864;52.526;19.672;2023-04-26T00:14:20;100207.88;;;6.85;100.00
61908;BME280;47864;52.526;19.672;2023-04-26T00:16:22;100216.75;;;6.84;100.00
61908;BME280;47864;52.526;19.672;2023-04-26T00:18:24;100208.00;;;6.65;100.00
61908;BME280;47864;52.526;19.672;2023-04-26T00:20:26;100223.53;;;6.68;100.00
61908;BME280;47864;52.526;19.672;2023-04-26T00:22:27;100222.69;;;6.67;100.00
61908;BME280;47864;52.526;19.672;2023-04-26T00:24:29;100219.50;;;6.64;100.00
61908;BME280;47864;52.526;19.672;2023-04-26T00:26:31;100203.53;;;6.56;100.00
61908;BME280;47864;52.526;19.672;2023-04-26T00:28:32;100218.38;;;6.57;100.00
61908;BME280;47864;52.526;19.672;2023-04-26T00:30:34;100225.03;;;6.61;100.00
61908;BME280;47864;52.526;19.672;2023-04-26T00:32:36;100210.44;;;6.47;100.00
61908;BME280;47864;52.526;19.672;2023-04-26T00:34:37;100217.47;;;6.37;100.00
61908;BME280;47864;52.526;19.672;2023-04-26T00:36:39;100219.69;;;6.32;100.00
61908;BME280;47864;52.526;19.672;2023-04-26T00:38:40;100225.09;;;6.30;100.00
61908;BME280;47864;52.526;19.672;2023-04-26T00:40:42;100236.03;;;6.35;100.00
61908;BME280;47864;52.526;19.672;2023-04-26T00:42:44;100241.31;;;6.26;100.00
61908;BME280;47864;52.526;19.672;2023-04-26T00:44:45;100247.13;;;6.29;100.00
61908;BME280;47864;52.526;19.672;2023-04-26T00:46:48;100240.53;;;6.14;100.00
61908;BME280;47864;52.526;19.672;2023-04-26T00:48:51;100248.63;;;6.22;100.00
61908;BME280;47864;52.526;19.672;2023-04-26T00:50:54;100226.22;;;6.07;100.00
61908;BME280;47864;52.526;19.672;2023-04-26T00:52:57;100243.25;;;6.03;100.00
61908;BME280;47864;52.526;19.672;2023-04-26T00:54:59;100247.38;;;5.96;100.00
61908;BME280;47864;52.526;19.672;2023-04-26T00:57:01;100228.38;;;5.92;100.00
61908;BME280;47864;52.526;19.672;2023-04-26T00:59:03;100236.28;;;5.92;100.00
61908;BME280;47864;52.526;19.672;2023-04-26T01:01:04;100212.44;;;5.73;100.00
61908;BME280;47864;52.526;19.672;2023-04-26T01:03:06;100202.25;;;5.59;100.00
61908;BME280;47864;52.526;19.672;2023-04-26T01:05:08;100252.16;;;5.70;100.00
61908;BME280;47864;52.526;19.672;2023-04-26T01:07:10;100240.78;;;5.69;100.00
61908;BME280;47864;52.526;19.672;2023-04-26T01:09:12;100250.00;;;5.75;100.00
61908;BME280;47864;52.526;19.672;2023-04-26T01:11:14;100220.59;;;5.49;100.00
61908;BME280;47864;52.526;19.672;2023-04-26T01:13:16;100242.91;;;5.55;100.00
61908;BME280;47864;52.526;19.672;2023-04-26T01:15:17;100231.56;;;5.54;100.00
61908;BME280;47864;52.526;19.672;2023-04-26T01:17:19;100251.06;;;5.52;100.00
61908;BME280;47864;52.526;19.672;2023-04-26T01:19:21;100244.78;;;5.43;100.00
61908;BME280;47864;52.526;19.672;2023-04-26T01:21:23;100209.00;;;5.20;100.00
61908;BME280;47864;52.526;19.672;2023-04-26T01:23:25;100254.59;;;5.41;100.00
61908;BME280;47864;52.526;19.672;2023-04-26T01:25:26;100252.19;;;5.38;100.00
61908;BME280;47864;52.526;19.672;2023-04-26T01:27:28;100255.78;;;5.37;100.00
61908;BME280;47864;52.526;19.672;2023-04-26T01:29:30;100247.69;;;5.29;100.00
61908;BME280;47864;52.526;19.672;2023-04-26T01:31:32;100257.84;;;5.33;100.00
61908;BME280;47864;52.526;19.672;2023-04-26T01:33:33;100253.28;;;5.35;100.00
61908;BME280;47864;52.526;19.672;2023-04-26T01:35:35;100261.63;;;5.41;100.00
61908;BME280;47864;52.526;19.672;2023-04-26T01:37:36;100231.88;;;5.08;100.00
61908;BME280;47864;52.526;19.672;2023-04-26T01:39:38;100251.16;;;5.29;100.00
61908;BME280;47864;52.526;19.672;2023-04-26T01:41:40;100258.16;;;5.40;100.00
61908;BME280;47864;52.526;19.672;2023-04-26T01:43:41;100231.03;;;5.19;100.00
61908;BME280;47864;52.526;19.672;2023-04-26T01:45:46;100258.19;;;5.29;100.00
61908;BME280;47864;52.526;19.672;2023-04-26T01:47:47;100258.63;;;5.13;100.00
61908;BME280;47864;52.526;19.672;2023-04-26T01:49:49;100261.88;;;5.06;100.00
61908;BME280;47864;52.526;19.672;2023-04-26T01:51:51;100259.25;;;4.94;100.00
61908;BME280;47864;52.526;19.672;2023-04-26T01:53:52;100260.91;;;5.07;100.00
61908;BME280;47864;52.526;19.672;2023-04-26T01:55:54;100253.44;;;4.91;100.00
61908;BME280;47864;52.526;19.672;2023-04-26T01:57:55;100236.84;;;4.79;100.00
61908;BME280;47864;52.526;19.672;2023-04-26T01:59:57;100249.00;;;4.91;100.00
61908;BME280;47864;52.526;19.672;2023-04-26T02:01:58;100245.84;;;4.77;100.00
61908;BME280;47864;52.526;19.672;2023-04-26T02:04:00;100264.06;;;4.78;100.00
61908;BME280;47864;52.526;19.672;2023-04-26T02:06:02;100256.28;;;4.88;100.00
61908;BME280;47864;52.526;19.672;2023-04-26T02:08:04;100245.38;;;4.61;100.00
61908;BME280;47864;52.526;19.672;2023-04-26T02:10:06;100265.50;;;4.82;100.00
61908;BME280;47864;52.526;19.672;2023-04-26T02:12:07;100242.50;;;4.64;100.00
61908;BME280;47864;52.526;19.672;2023-04-26T02:14:09;100238.44;;;4.59;100.00
61908;BME280;47864;52.526;19.672;2023-04-26T02:16:10;100255.97;;;4.70;100.00
61908;BME280;47864;52.526;19.672;2023-04-26T02:18:12;100261.09;;;4.72;100.00
61908;BME280;47864;52.526;19.672;2023-04-26T02:20:14;100248.47;;;4.66;100.00
61908;BME280;47864;52.526;19.672;2023-04-26T02:22:15;100266.63;;;4.57;100.00
61908;BME280;47864;52.526;19.672;2023-04-26T02:24:17;100259.47;;;4.37;100.00
61908;BME280;47864;52.526;19.672;2023-04-26T02:26:18;100241.22;;;4.36;100.00
61908;BME280;47864;52.526;19.672;2023-04-26T02:28:20;100268.19;;;4.49;100.00
61908;BME280;47864;52.526;19.672;2023-04-26T02:30:21;100250.50;;;4.40;100.00
61908;BME280;47864;52.526;19.672;2023-04-26T02:32:23;100242.41;;;4.32;100.00
61908;BME280;47864;52.526;19.672;2023-04-26T02:34:24;100259.22;;;4.40;100.00
61908;BME280;47864;52.526;19.672;2023-04-26T02:36:26;100266.72;;;4.45;100.00
61908;BME280;47864;52.526;19.672;2023-04-26T02:38:27;100249.09;;;4.25;100.00
61908;BME280;47864;52.526;19.672;2023-04-26T02:40:29;100269.59;;;4.53;100.00
61908;BME280;47864;52.526;19.672;2023-04-26T02:42:31;100258.41;;;4.40;100.00
61908;BME280;47864;52.526;19.672;2023-04-26T02:44:32;100276.31;;;4.35;100.00
61908;BME280;47864;52.526;19.672;2023-04-26T02:46:34;100266.97;;;4.31;100.00
61908;BME280;47864;52.526;19.672;2023-04-26T02:48:36;100268.44;;;4.35;100.00
61908;BME280;47864;52.526;19.672;2023-04-26T02:50:38;100251.59;;;4.15;100.00
61908;BME280;47864;52.526;19.672;2023-04-26T02:52:39;100264.47;;;4.18;100.00
61908;BME280;47864;52.526;19.672;2023-04-26T02:54:41;100269.72;;;4.18;100.00
61908;BME280;47864;52.526;19.672;2023-04-26T02:56:42;100261.25;;;4.03;100.00
61908;BME280;47864;52.526;19.672;2023-04-26T02:58:44;100262.69;;;4.07;100.00
61908;BME280;47864;52.526;19.672;2023-04-26T03:00:46;100267.56;;;4.01;100.00
61908;BME280;47864;52.526;19.672;2023-04-26T03:02:47;100253.56;;;3.89;100.00
61908;BME280;47864;52.526;19.672;2023-04-26T03:04:49;100254.09;;;3.94;100.00
61908;BME280;47864;52.526;19.672;2023-04-26T03:06:50;100270.69;;;4.17;100.00
61908;BME280;47864;52.526;19.672;2023-04-26T03:08:52;100244.28;;;3.85;100.00
61908;BME280;47864;52.526;19.672;2023-04-26T03:10:54;100262.19;;;3.91;100.00
61908;BME280;47864;52.526;19.672;2023-04-26T03:12:55;100273.16;;;3.96;100.00
61908;BME280;47864;52.526;19.672;2023-04-26T03:14:57;100280.44;;;4.04;100.00
61908;BME280;47864;52.526;19.672;2023-04-26T03:16:59;100276.97;;;3.92;100.00
61908;BME280;47864;52.526;19.672;2023-04-26T03:19:01;100284.16;;;4.01;100.00
61908;BME280;47864;52.526;19.672;2023-04-26T03:21:02;100275.78;;;3.96;100.00
61908;BME280;47864;52.526;19.672;2023-04-26T03:23:04;100283.91;;;3.93;100.00
61908;BME280;47864;52.526;19.672;2023-04-26T03:25:05;100282.25;;;4.03;100.00
61908;BME280;47864;52.526;19.672;2023-04-26T03:27:07;100291.75;;;4.04;100.00
61908;BME280;47864;52.526;19.672;2023-04-26T03:29:09;100284.03;;;4.03;100.00
61908;BME280;47864;52.526;19.672;2023-04-26T03:31:10;100294.06;;;4.09;100.00
61908;BME280;47864;52.526;19.672;2023-04-26T03:33:12;100296.34;;;4.25;100.00
61908;BME280;47864;52.526;19.672;2023-04-26T03:35:13;100296.78;;;4.07;100.00
61908;BME280;47864;52.526;19.672;2023-04-26T03:37:15;100288.69;;;4.10;100.00
61908;BME280;47864;52.526;19.672;2023-04-26T03:39:17;100297.03;;;4.15;100.00
61908;BME280;47864;52.526;19.672;2023-04-26T03:41:18;100301.38;;;4.28;100.00
61908;BME280;47864;52.526;19.672;2023-04-26T03:43:20;100299.31;;;4.20;100.00
61908;BME280;47864;52.526;19.672;2023-04-26T03:45:22;100288.81;;;4.09;100.00
61908;BME280;47864;52.526;19.672;2023-04-26T03:47:23;100275.44;;;4.01;100.00
61908;BME280;47864;52.526;19.672;2023-04-26T03:49:25;100278.06;;;4.01;100.00
61908;BME280;47864;52.526;19.672;2023-04-26T03:51:26;100300.88;;;4.11;100.00
61908;BME280;47864;52.526;19.672;2023-04-26T03:53:28;100299.44;;;4.18;100.00
61908;BME280;47864;52.526;19.672;2023-04-26T03:55:29;100289.19;;;4.27;100.00
61908;BME280;47864;52.526;19.672;2023-04-26T03:57:31;100306.28;;;4.43;100.00
61908;BME280;47864;52.526;19.672;2023-04-26T03:59:32;100299.81;;;4.36;100.00
61908;BME280;47864;52.526;19.672;2023-04-26T04:01:34;100299.34;;;4.76;100.00
61908;BME280;47864;52.526;19.672;2023-04-26T04:03:36;100288.22;;;4.83;100.00
61908;BME280;47864;52.526;19.672;2023-04-26T04:05:41;100305.53;;;5.29;100.00
61908;BME280;47864;52.526;19.672;2023-04-26T04:07:43;100313.09;;;5.54;100.00
61908;BME280;47864;52.526;19.672;2023-04-26T04:09:44;100302.09;;;5.81;100.00
61908;BME280;47864;52.526;19.672;2023-04-26T04:11:46;100295.44;;;6.19;100.00
61908;BME280;47864;52.526;19.672;2023-04-26T04:13:47;100321.84;;;6.89;100.00
61908;BME280;47864;52.526;19.672;2023-04-26T04:15:50;100322.88;;;6.77;100.00
61908;BME280;47864;52.526;19.672;2023-04-26T04:17:54;100309.78;;;6.56;100.00
61908;BME280;47864;52.526;19.672;2023-04-26T04:19:56;100314.44;;;7.61;100.00
61908;BME280;47864;52.526;19.672;2023-04-26T04:21:57;100297.28;;;8.33;100.00
61908;BME280;47864;52.526;19.672;2023-04-26T04:23:59;100316.13;;;8.85;97.04
61908;BME280;47864;52.526;19.672;2023-04-26T04:26:00;100298.66;;;9.46;92.31
61908;BME280;47864;52.526;19.672;2023-04-26T04:28:02;100317.53;;;8.89;89.85
61908;BME280;47864;52.526;19.672;2023-04-26T04:30:04;100313.47;;;8.57;95.31
61908;BME280;47864;52.526;19.672;2023-04-26T04:32:06;100298.31;;;8.87;92.25
61908;BME280;47864;52.526;19.672;2023-04-26T04:34:10;100304.94;;;8.17;95.68
61908;BME280;47864;52.526;19.672;2023-04-26T04:36:12;100315.84;;;7.46;100.00
61908;BME280;47864;52.526;19.672;2023-04-26T04:38:14;100322.78;;;7.47;100.00
61908;BME280;47864;52.526;19.672;2023-04-26T04:40:15;100320.88;;;6.90;100.00
61908;BME280;47864;52.526;19.672;2023-04-26T04:42:20;100327.69;;;6.62;100.00
61908;BME280;47864;52.526;19.672;2023-04-26T04:44:21;100322.31;;;6.43;100.00
61908;BME280;47864;52.526;19.672;2023-04-26T04:46:23;100324.75;;;6.56;100.00
61908;BME280;47864;52.526;19.672;2023-04-26T04:48:24;100332.84;;;6.33;100.00
61908;BME280;47864;52.526;19.672;2023-04-26T04:50:26;100314.81;;;6.08;100.00
61908;BME280;47864;52.526;19.672;2023-04-26T04:52:28;100326.13;;;6.29;100.00
61908;BME280;47864;52.526;19.672;2023-04-26T04:54:29;100334.50;;;6.65;100.00
61908;BME280;47864;52.526;19.672;2023-04-26T04:56:31;100308.22;;;7.72;100.00
61908;BME280;47864;52.526;19.672;2023-04-26T04:58:33;100325.28;;;8.63;97.67
61908;BME280;47864;52.526;19.672;2023-04-26T05:00:34;100325.25;;;9.27;93.93
61908;BME280;47864;52.526;19.672;2023-04-26T05:02:36;100333.44;;;9.51;90.50
61908;BME280;47864;52.526;19.672;2023-04-26T05:04:37;100326.53;;;9.59;90.43
61908;BME280;47864;52.526;19.672;2023-04-26T05:06:39;100340.91;;;9.38;90.45
61908;BME280;47864;52.526;19.672;2023-04-26T05:08:41;100334.44;;;9.05;93.03
61908;BME280;47864;52.526;19.672;2023-04-26T05:10:44;100328.94;;;8.89;92.07
61908;BME280;47864;52.526;19.672;2023-04-26T05:12:45;100335.31;;;9.59;87.92
61908;BME280;47864;52.526;19.672;2023-04-26T05:14:47;100346.06;;;9.93;87.41
61908;BME280;47864;52.526;19.672;2023-04-26T05:16:48;100326.69;;;9.75;85.12
61908;BME280;47864;52.526;19.672;2023-04-26T05:18:50;100320.41;;;9.93;81.39
61908;BME280;47864;52.526;19.672;2023-04-26T05:20:51;100343.56;;;9.91;84.68
61908;BME280;47864;52.526;19.672;2023-04-26T05:22:53;100337.41;;;10.26;82.48
61908;BME280;47864;52.526;19.672;2023-04-26T05:24:54;100353.16;;;10.10;83.25
61908;BME280;47864;52.526;19.672;2023-04-26T05:26:59;100354.03;;;9.75;83.99
61908;BME280;47864;52.526;19.672;2023-04-26T05:29:01;100340.34;;;9.80;85.01
61908;BME280;47864;52.526;19.672;2023-04-26T05:31:02;100356.88;;;10.00;84.15
61908;BME280;47864;52.526;19.672;2023-04-26T05:33:04;100349.53;;;10.11;85.29
61908;BME280;47864;52.526;19.672;2023-04-26T05:35:06;100352.28;;;10.45;82.14
61908;BME280;47864;52.526;19.672;2023-04-26T05:37:07;100355.06;;;10.18;82.63
61908;BME280;47864;52.526;19.672;2023-04-26T05:39:08;100351.28;;;10.46;82.58
61908;BME280;47864;52.526;19.672;2023-04-26T05:41:10;100359.34;;;10.96;82.38
61908;BME280;47864;52.526;19.672;2023-04-26T05:43:11;100361.06;;;11.05;80.16
61908;BME280;47864;52.526;19.672;2023-04-26T05:45:13;100351.38;;;10.96;79.90
61908;BME280;47864;52.526;19.672;2023-04-26T05:47:15;100357.97;;;11.18;78.53
61908;BME280;47864;52.526;19.672;2023-04-26T05:49:16;100359.31;;;10.88;79.09
61908;BME280;47864;52.526;19.672;2023-04-26T05:51:19;100353.03;;;11.31;80.83
61908;BME280;47864;52.526;19.672;2023-04-26T05:53:20;100347.53;;;12.07;75.17
61908;BME280;47864;52.526;19.672;2023-04-26T05:55:22;100353.44;;;10.68;76.80
61908;BME280;47864;52.526;19.672;2023-04-26T05:57:24;100357.41;;;10.47;81.45
61908;BME280;47864;52.526;19.672;2023-04-26T05:59:26;100342.78;;;10.60;77.77
61908;BME280;47864;52.526;19.672;2023-04-26T06:01:28;100356.22;;;10.67;80.04
61908;BME280;47864;52.526;19.672;2023-04-26T06:03:29;100313.97;;;10.40;79.96
61908;BME280;47864;52.526;19.672;2023-04-26T06:05:31;100351.63;;;10.43;79.59
61908;BME280;47864;52.526;19.672;2023-04-26T06:07:33;100356.34;;;10.91;77.81
61908;BME280;47864;52.526;19.672;2023-04-26T06:09:35;100352.00;;;10.56;79.05
61908;BME280;47864;52.526;19.672;2023-04-26T06:11:36;100351.44;;;10.01;79.66
61908;BME280;47864;52.526;19.672;2023-04-26T06:13:38;100336.16;;;10.39;80.84
61908;BME280;47864;52.526;19.672;2023-04-26T06:15:39;100356.03;;;10.60;78.31
61908;BME280;47864;52.526;19.672;2023-04-26T06:17:40;100337.88;;;11.16;75.77
61908;BME280;47864;52.526;19.672;2023-04-26T06:19:42;100351.88;;;10.58;76.17
61908;BME280;47864;52.526;19.672;2023-04-26T06:21:44;100357.38;;;11.40;73.92
61908;BME280;47864;52.526;19.672;2023-04-26T06:23:45;100351.78;;;11.10;73.40
61908;BME280;47864;52.526;19.672;2023-04-26T06:25:46;100339.13;;;10.61;74.45
61908;BME280;47864;52.526;19.672;2023-04-26T06:27:48;100336.91;;;10.83;75.23
61908;BME280;47864;52.526;19.672;2023-04-26T06:29:50;100344.09;;;11.40;73.92
61908;BME280;47864;52.526;19.672;2023-04-26T06:31:51;100357.78;;;11.86;72.00
61908;BME280;47864;52.526;19.672;2023-04-26T06:33:53;100349.19;;;11.84;69.73
61908;BME280;47864;52.526;19.672;2023-04-26T06:35:54;100325.16;;;12.57;70.68
61908;BME280;47864;52.526;19.672;2023-04-26T06:37:56;100339.50;;;12.95;67.83
61908;BME280;47864;52.526;19.672;2023-04-26T06:39:58;100362.63;;;12.07;67.95
61908;BME280;47864;52.526;19.672;2023-04-26T06:42:00;100355.81;;;11.30;67.53
61908;BME280;47864;52.526;19.672;2023-04-26T06:44:01;100360.97;;;10.55;70.06
61908;BME280;47864;52.526;19.672;2023-04-26T06:46:02;100359.84;;;9.79;74.94
61908;BME280;47864;52.526;19.672;2023-04-26T06:48:04;100364.47;;;10.90;71.87
61908;BME280;47864;52.526;19.672;2023-04-26T06:50:06;100372.06;;;11.19;67.85
61908;BME280;47864;52.526;19.672;2023-04-26T06:52:08;100364.00;;;10.60;69.16
61908;BME280;47864;52.526;19.672;2023-04-26T06:54:11;100352.06;;;10.98;68.59
61908;BME280;47864;52.526;19.672;2023-04-26T06:56:12;100363.56;;;11.65;65.22
61908;BME280;47864;52.526;19.672;2023-04-26T06:58:14;100362.81;;;11.31;63.58
61908;BME280;47864;52.526;19.672;2023-04-26T07:00:16;100368.56;;;11.10;64.36
61908;BME280;47864;52.526;19.672;2023-04-26T07:02:18;100336.88;;;10.75;63.72
61908;BME280;47864;52.526;19.672;2023-04-26T07:04:20;100369.59;;;11.25;61.15
61908;BME280;47864;52.526;19.672;2023-04-26T07:06:23;100371.13;;;11.28;64.64
61908;BME280;47864;52.526;19.672;2023-04-26T07:08:24;100364.56;;;11.64;62.50
61908;BME280;47864;52.526;19.672;2023-04-26T07:10:26;100378.41;;;12.33;61.55
61908;BME280;47864;52.526;19.672;2023-04-26T07:12:28;100375.81;;;11.00;58.47
61908;BME280;47864;52.526;19.672;2023-04-26T07:14:29;100376.16;;;11.55;61.43
61908;BME280;47864;52.526;19.672;2023-04-26T07:16:31;100373.53;;;11.13;60.61
61908;BME280;47864;52.526;19.672;2023-04-26T07:18:33;100367.47;;;10.61;64.68
61908;BME280;47864;52.526;19.672;2023-04-26T07:20:34;100374.53;;;10.78;64.97
61908;BME280;47864;52.526;19.672;2023-04-26T07:22:35;100375.06;;;10.12;63.76
61908;BME280;47864;52.526;19.672;2023-04-26T07:24:37;100374.88;;;10.14;63.61
61908;BME280;47864;52.526;19.672;2023-04-26T07:26:38;100369.63;;;10.40;61.66
61908;BME280;47864;52.526;19.672;2023-04-26T07:28:40;100379.06;;;10.60;61.65
61908;BME280;47864;52.526;19.672;2023-04-26T07:30:42;100381.28;;;10.03;61.42
61908;BME280;47864;52.526;19.672;2023-04-26T07:32:43;100382.03;;;9.96;59.42
61908;BME280;47864;52.526;19.672;2023-04-26T07:34:45;100382.38;;;9.65;59.19
61908;BME280;47864;52.526;19.672;2023-04-26T07:36:47;100382.72;;;9.80;59.26
61908;BME280;47864;52.526;19.672;2023-04-26T07:38:48;100369.72;;;10.82;57.56
61908;BME280;47864;52.526;19.672;2023-04-26T07:40:50;100360.09;;;10.21;57.67
61908;BME280;47864;52.526;19.672;2023-04-26T07:42:52;100360.91;;;9.68;60.47
61908;BME280;47864;52.526;19.672;2023-04-26T07:44:53;100385.78;;;9.58;59.09
61908;BME280;47864;52.526;19.672;2023-04-26T07:46:55;100370.63;;;10.39;59.01
61908;BME280;47864;52.526;19.672;2023-04-26T07:48:56;100384.19;;;10.87;56.52
61908;BME280;47864;52.526;19.672;2023-04-26T07:51:09;100395.38;;;11.41;54.55
61908;BME280;47864;52.526;19.672;2023-04-26T07:53:10;100372.25;;;11.25;53.10
61908;BME280;47864;52.526;19.672;2023-04-26T07:55:12;100394.50;;;11.74;55.14
61908;BME280;47864;52.526;19.672;2023-04-26T07:57:13;100369.47;;;12.09;50.48
61908;BME280;47864;52.526;19.672;2023-04-26T07:59:15;100394.59;;;11.15;54.54
61908;BME280;47864;52.526;19.672;2023-04-26T08:01:16;100389.03;;;10.40;54.77
61908;BME280;47864;52.526;19.672;2023-04-26T08:03:18;100396.91;;;10.50;56.12
61908;BME280;47864;52.526;19.672;2023-04-26T08:05:20;100393.13;;;10.78;55.65
61908;BME280;47864;52.526;19.672;2023-04-26T08:07:22;100389.88;;;10.66;55.58
61908;BME280;47864;52.526;19.672;2023-04-26T08:09:23;100396.78;;;10.34;57.66
61908;BME280;47864;52.526;19.672;2023-04-26T08:11:25;100396.59;;;10.53;56.65
61908;BME280;47864;52.526;19.672;2023-04-26T08:13:26;100399.97;;;10.63;58.20
61908;BME280;47864;52.526;19.672;2023-04-26T08:15:29;100399.97;;;10.63;61.07
61908;BME280;47864;52.526;19.672;2023-04-26T08:17:31;100379.97;;;10.07;59.66
61908;BME280;47864;52.526;19.672;2023-04-26T08:19:33;100398.97;;;9.67;60.40
61908;BME280;47864;52.526;19.672;2023-04-26T08:21:34;100401.41;;;9.33;62.78
61908;BME280;47864;52.526;19.672;2023-04-26T08:23:36;100403.94;;;9.25;63.44
61908;BME280;47864;52.526;19.672;2023-04-26T08:25:37;100389.69;;;9.08;63.64
61908;BME280;47864;52.526;19.672;2023-04-26T08:27:39;100404.31;;;9.12;62.63
61908;BME280;47864;52.526;19.672;2023-04-26T08:29:40;100383.06;;;9.67;60.49
61908;BME280;47864;52.526;19.672;2023-04-26T08:31:42;100395.03;;;10.68;58.48
61908;BME280;47864;52.526;19.672;2023-04-26T08:33:43;100399.78;;;10.39;57.86
61908;BME280;47864;52.526;19.672;2023-04-26T08:35:45;100412.63;;;10.69;55.11
61908;BME280;47864;52.526;19.672;2023-04-26T08:37:46;100393.00;;;10.36;57.29
61908;BME280;47864;52.526;19.672;2023-04-26T08:39:48;100397.38;;;9.74;58.06
61908;BME280;47864;52.526;19.672;2023-04-26T08:41:52;100410.13;;;9.16;58.68
61908;BME280;47864;52.526;19.672;2023-04-26T08:43:54;100404.16;;;8.67;59.76
61908;BME280;47864;52.526;19.672;2023-04-26T08:45:57;100402.34;;;8.68;58.73
61908;BME280;47864;52.526;19.672;2023-04-26T08:48:04;100403.28;;;8.39;61.45
61908;BME280;47864;52.526;19.672;2023-04-26T08:50:10;100424.22;;;8.60;61.79
61908;BME280;47864;52.526;19.672;2023-04-26T08:52:12;100435.13;;;9.04;60.40
61908;BME280;47864;52.526;19.672;2023-04-26T08:54:14;100422.81;;;10.38;58.59
61908;BME280;47864;52.526;19.672;2023-04-26T08:56:16;100415.13;;;10.71;55.79
61908;BME280;47864;52.526;19.672;2023-04-26T08:58:18;100431.75;;;10.81;54.92
61908;BME280;47864;52.526;19.672;2023-04-26T09:00:21;100407.50;;;10.14;58.03
61908;BME280;47864;52.526;19.672;2023-04-26T09:02:22;100436.34;;;9.82;59.00
61908;BME280;47864;52.526;19.672;2023-04-26T09:04:24;100437.91;;;9.57;58.25
61908;BME280;47864;52.526;19.672;2023-04-26T09:06:26;100431.94;;;9.55;58.24
61908;BME280;47864;52.526;19.672;2023-04-26T09:08:28;100442.19;;;9.68;59.51
61908;BME280;47864;52.526;19.672;2023-04-26T09:10:30;100434.47;;;9.74;60.05
61908;BME280;47864;52.526;19.672;2023-04-26T09:12:31;100432.56;;;9.39;57.53
61908;BME280;47864;52.526;19.672;2023-04-26T09:14:33;100434.84;;;9.34;60.37
61908;BME280;47864;52.526;19.672;2023-04-26T09:16:35;100438.38;;;8.88;59.61
61908;BME280;47864;52.526;19.672;2023-04-26T09:18:46;100446.81;;;9.38;58.06
61908;BME280;47864;52.526;19.672;2023-04-26T09:21:06;100445.63;;;9.96;55.88
61908;BME280;47864;52.526;19.672;2023-04-26T09:23:08;100424.41;;;10.75;52.57
61908;BME280;47864;52.526;19.672;2023-04-26T09:25:11;100440.84;;;11.04;53.21
61908;BME280;47864;52.526;19.672;2023-04-26T09:27:12;100441.84;;;10.77;52.84
61908;BME280;47864;52.526;19.672;2023-04-26T09:29:17;100439.09;;;9.90;53.48
61908;BME280;47864;52.526;19.672;2023-04-26T09:31:42;100444.84;;;9.85;55.89
61908;BME280;47864;52.526;19.672;2023-04-26T09:33:59;100449.44;;;9.66;56.41
61908;BME280;47864;52.526;19.672;2023-04-26T09:36:11;100452.16;;;9.74;54.30
61908;BME280;47864;52.526;19.672;2023-04-26T09:38:16;100452.81;;;9.58;56.18
61908;BME280;47864;52.526;19.672;2023-04-26T09:40:19;100455.47;;;9.58;55.60
61908;BME280;47864;52.526;19.672;2023-04-26T09:42:21;100450.03;;;9.60;57.57
61908;BME280;47864;52.526;19.672;2023-04-26T09:44:24;100456.81;;;9.44;58.12
61908;BME280;47864;52.526;19.672;2023-04-26T09:46:25;100293.78;;;8.32;58.29
61908;BME280;47864;52.526;19.672;2023-04-26T09:48:29;100461.41;;;9.42;58.73
61908;BME280;47864;52.526;19.672;2023-04-26T09:50:31;100458.03;;;9.50;57.20
61908;BME280;47864;52.526;19.672;2023-04-26T09:52:41;100456.34;;;9.22;58.00
61908;BME280;47864;52.526;19.672;2023-04-26T09:54:51;100453.47;;;9.70;58.02
61908;BME280;47864;52.526;19.672;2023-04-26T09:56:59;100451.88;;;10.65;57.25
61908;BME280;47864;52.526;19.672;2023-04-26T09:59:00;100438.09;;;10.88;52.88
61908;BME280;47864;52.526;19.672;2023-04-26T10:01:03;100449.88;;;10.85;56.02
61908;BME280;47864;52.526;19.672;2023-04-26T10:03:07;100446.75;;;10.11;51.84
61908;BME280;47864;52.526;19.672;2023-04-26T10:05:09;100437.50;;;9.79;53.38
61908;BME280;47864;52.526;19.672;2023-04-26T10:07:11;100452.03;;;10.20;51.96
61908;BME280;47864;52.526;19.672;2023-04-26T10:09:13;100456.31;;;10.21;52.35
61908;BME280;47864;52.526;19.672;2023-04-26T10:11:15;100465.69;;;10.16;51.85
61908;BME280;47864;52.526;19.672;2023-04-26T10:13:18;100464.00;;;9.79;52.62
61908;BME280;47864;52.526;19.672;2023-04-26T10:15:20;100472.22;;;9.76;53.49
61908;BME280;47864;52.526;19.672;2023-04-26T10:17:21;100457.88;;;10.67;48.82
61908;BME280;47864;52.526;19.672;2023-04-26T10:19:23;100455.66;;;11.15;50.86
61908;BME280;47864;52.526;19.672;2023-04-26T10:21:30;100459.13;;;11.75;50.04
61908;BME280;47864;52.526;19.672;2023-04-26T10:23:34;100456.00;;;11.54;46.24
61908;BME280;47864;52.526;19.672;2023-04-26T10:25:38;100454.41;;;10.49;51.28
61908;BME280;47864;52.526;19.672;2023-04-26T10:34:19;100462.44;;;10.57;49.23
61908;BME280;47864;52.526;19.672;2023-04-26T10:36:21;100461.09;;;10.53;51.26
61908;BME280;47864;52.526;19.672;2023-04-26T10:38:22;100443.59;;;10.43;49.87